sensor_id;sensor_type;location;lat;lon;timestamp;pressure;altitude;pressure_sealevel;temperature;humidity
71996;BME280;59862;47.732;7.346;2022-11-18T00:01:07;96365.39;;;8.12;89.97
71996;BME280;59862;47.732;7.346;2022-11-18T00:03:36;96376.48;;;8.09;89.97
71996;BME280;59862;47.732;7.346;2022-11-18T00:06:05;96381.61;;;8.04;89.97
71996;BME280;59862;47.732;7.346;2022-11-18T00:08:33;96377.72;;;8.00;90.03
71996;BME280;59862;47.732;7.346;2022-11-18T00:11:07;96380.38;;;8.06;90.04
71996;BME280;59862;47.732;7.346;2022-11-18T00:13:36;96388.00;;;8.03;90.07
71996;BME280;59862;47.732;7.346;2022-11-18T00:16:22;96386.95;;;7.97;90.20
71996;BME280;59862;47.732;7.346;2022-11-18T00:18:51;96391.91;;;7.94;90.37
71996;BME280;59862;47.732;7.346;2022-11-18T00:21:18;96390.67;;;7.83;90.61
71996;BME280;59862;47.732;7.346;2022-11-18T00:23:47;96383.06;;;7.87;90.86
71996;BME280;59862;47.732;7.346;2022-11-18T00:26:15;96381.84;;;7.89;91.01
71996;BME280;59862;47.732;7.346;2022-11-18T00:28:42;96378.88;;;7.82;91.09
71996;BME280;59862;47.732;7.346;2022-11-18T00:31:12;96386.16;;;7.84;91.23
71996;BME280;59862;47.732;7.346;2022-11-18T00:33:40;96385.84;;;7.83;91.33
71996;BME280;59862;47.732;7.346;2022-11-18T00:36:10;96398.25;;;7.80;91.48
71996;BME280;59862;47.732;7.346;2022-11-18T00:38:38;96397.45;;;7.79;91.63
71996;BME280;59862;47.732;7.346;2022-11-18T00:41:09;96404.93;;;7.80;91.75
71996;BME280;59862;47.732;7.346;2022-11-18T00:43:36;96401.14;;;7.78;91.84
71996;BME280;59862;47.732;7.346;2022-11-18T00:46:05;96412.76;;;7.81;91.86
71996;BME280;59862;47.732;7.346;2022-11-18T00:48:33;96416.55;;;7.83;91.82
71996;BME280;59862;47.732;7.346;2022-11-18T00:51:10;96419.83;;;7.85;91.72
71996;BME280;59862;47.732;7.346;2022-11-18T00:53:38;96419.44;;;7.88;91.68
71996;BME280;59862;47.732;7.346;2022-11-18T00:56:07;96423.63;;;7.86;91.60
71996;BME280;59862;47.732;7.346;2022-11-18T00:58:36;96425.17;;;7.91;91.58
71996;BME280;59862;47.732;7.346;2022-11-18T01:01:04;96420.67;;;7.98;91.47
71996;BME280;59862;47.732;7.346;2022-11-18T01:03:32;96425.90;;;7.96;91.26
71996;BME280;59862;47.732;7.346;2022-11-18T01:05:59;96439.14;;;8.00;91.19
71996;BME280;59862;47.732;7.346;2022-11-18T01:08:27;96440.08;;;8.03;91.11
71996;BME280;59862;47.732;7.346;2022-11-18T01:10:54;96439.04;;;7.97;90.97
71996;BME280;59862;47.732;7.346;2022-11-18T01:13:23;96447.48;;;8.01;90.91
71996;BME280;59862;47.732;7.346;2022-11-18T01:15:58;96443.58;;;7.97;90.84
71996;BME280;59862;47.732;7.346;2022-11-18T01:18:28;96445.64;;;7.95;90.75
71996;BME280;59862;47.732;7.346;2022-11-18T01:21:00;96452.31;;;7.95;90.76
71996;BME280;59862;47.732;7.346;2022-11-18T01:23:28;96449.72;;;7.97;90.73
71996;BME280;59862;47.732;7.346;2022-11-18T01:25:55;96452.31;;;7.95;90.74
71996;BME280;59862;47.732;7.346;2022-11-18T01:28:23;96460.40;;;7.91;90.68
71996;BME280;59862;47.732;7.346;2022-11-18T01:30:51;96468.02;;;7.94;90.71
71996;BME280;59862;47.732;7.346;2022-11-18T01:33:18;96468.22;;;7.86;90.65
71996;BME280;59862;47.732;7.346;2022-11-18T01:35:45;96480.23;;;7.86;90.58
71996;BME280;59862;47.732;7.346;2022-11-18T01:38:13;96480.63;;;7.83;90.57
71996;BME280;59862;47.732;7.346;2022-11-18T01:40:41;96485.67;;;7.82;90.39
71996;BME280;59862;47.732;7.346;2022-11-18T01:43:17;96488.86;;;7.88;90.27
71996;BME280;59862;47.732;7.346;2022-11-18T01:45:47;96486.81;;;7.90;90.04
71996;BME280;59862;47.732;7.346;2022-11-18T01:48:27;96493.78;;;7.91;89.84
71996;BME280;59862;47.732;7.346;2022-11-18T01:50:57;96494.72;;;7.94;89.54
71996;BME280;59862;47.732;7.346;2022-11-18T01:53:30;96498.41;;;7.93;89.37
71996;BME280;59862;47.732;7.346;2022-11-18T01:56:01;96498.11;;;7.92;89.28
71996;BME280;59862;47.732;7.346;2022-11-18T01:58:33;96506.41;;;7.86;89.33
71996;BME280;59862;47.732;7.346;2022-11-18T02:01:00;96508.05;;;7.81;89.54
71996;BME280;59862;47.732;7.346;2022-11-18T02:03:29;96517.00;;;7.84;89.68
71996;BME280;59862;47.732;7.346;2022-11-18T02:05:57;96522.12;;;7.79;89.71
71996;BME280;59862;47.732;7.346;2022-11-18T02:08:27;96526.13;;;7.79;89.80
71996;BME280;59862;47.732;7.346;2022-11-18T02:10:55;96525.73;;;7.82;89.88
71996;BME280;59862;47.732;7.346;2022-11-18T02:13:23;96528.29;;;7.79;89.71
71996;BME280;59862;47.732;7.346;2022-11-18T02:16:13;96531.34;;;7.76;89.74
71996;BME280;59862;47.732;7.346;2022-11-18T02:18:57;96526.41;;;7.80;89.87
71996;BME280;59862;47.732;7.346;2022-11-18T02:24:39;96532.05;;;7.68;89.89
71996;BME280;59862;47.732;7.346;2022-11-18T02:30:09;96529.66;;;7.55;89.79
71996;BME280;59862;47.732;7.346;2022-11-18T02:35:28;96535.73;;;7.60;89.52
71996;BME280;59862;47.732;7.346;2022-11-18T02:37:59;96531.52;;;7.61;89.40
71996;BME280;59862;47.732;7.346;2022-11-18T02:40:32;96533.24;;;7.58;89.35
71996;BME280;59862;47.732;7.346;2022-11-18T02:43:27;96533.84;;;7.54;89.01
71996;BME280;59862;47.732;7.346;2022-11-18T02:45:57;96532.39;;;7.51;88.77
71996;BME280;59862;47.732;7.346;2022-11-18T02:48:26;96544.20;;;7.46;88.53
71996;BME280;59862;47.732;7.346;2022-11-18T02:50:56;96548.67;;;7.39;88.42
71996;BME280;59862;47.732;7.346;2022-11-18T02:53:25;96550.10;;;7.35;88.48
71996;BME280;59862;47.732;7.346;2022-11-18T02:55:55;96561.81;;;7.41;88.32
71996;BME280;59862;47.732;7.346;2022-11-18T02:58:24;96561.30;;;7.41;87.61
71996;BME280;59862;47.732;7.346;2022-11-18T03:00:54;96562.43;;;7.43;87.34
71996;BME280;59862;47.732;7.346;2022-11-18T03:03:30;96563.23;;;7.37;86.89
71996;BME280;59862;47.732;7.346;2022-11-18T03:11:44;96565.02;;;7.40;87.51
71996;BME280;59862;47.732;7.346;2022-11-18T03:14:18;96559.94;;;7.35;88.24
71996;BME280;59862;47.732;7.346;2022-11-18T03:17:01;96573.41;;;7.37;88.91
71996;BME280;59862;47.732;7.346;2022-11-18T03:20:05;96577.20;;;7.39;89.39
71996;BME280;59862;47.732;7.346;2022-11-18T03:25:14;96576.69;;;7.39;90.28
71996;BME280;59862;47.732;7.346;2022-11-18T03:27:48;96577.64;;;7.42;90.56
71996;BME280;59862;47.732;7.346;2022-11-18T03:30:18;96582.98;;;7.42;90.82
71996;BME280;59862;47.732;7.346;2022-11-18T03:32:50;96583.36;;;7.39;91.02
71996;BME280;59862;47.732;7.346;2022-11-18T03:35:20;96587.78;;;7.43;91.20
71996;BME280;59862;47.732;7.346;2022-11-18T03:37:48;96590.27;;;7.44;91.31
71996;BME280;59862;47.732;7.346;2022-11-18T03:40:28;96600.41;;;7.38;91.38
71996;BME280;59862;47.732;7.346;2022-11-18T03:43:16;96587.58;;;7.38;91.48
71996;BME280;59862;47.732;7.346;2022-11-18T03:45:44;96597.80;;;7.34;91.49
71996;BME280;59862;47.732;7.346;2022-11-18T03:48:15;96604.88;;;7.31;91.38
71996;BME280;59862;47.732;7.346;2022-11-18T03:50:45;96611.31;;;7.26;91.31
71996;BME280;59862;47.732;7.346;2022-11-18T03:53:14;96614.64;;;7.18;91.36
71996;BME280;59862;47.732;7.346;2022-11-18T03:55:46;96624.84;;;7.08;91.44
71996;BME280;59862;47.732;7.346;2022-11-18T03:58:29;96642.59;;;6.94;91.43
71996;BME280;59862;47.732;7.346;2022-11-18T04:01:02;96647.87;;;6.87;91.37
71996;BME280;59862;47.732;7.346;2022-11-18T04:03:27;96644.78;;;6.84;91.47
71996;BME280;59862;47.732;7.346;2022-11-18T04:06:01;96651.11;;;6.83;91.53
71996;BME280;59862;47.732;7.346;2022-11-18T04:08:28;96654.86;;;6.78;91.53
71996;BME280;59862;47.732;7.346;2022-11-18T04:10:58;96654.92;;;6.74;91.57
71996;BME280;59862;47.732;7.346;2022-11-18T04:13:35;96661.30;;;6.73;91.56
71996;BME280;59862;47.732;7.346;2022-11-18T04:15:59;96664.03;;;6.69;91.44
71996;BME280;59862;47.732;7.346;2022-11-18T04:18:27;96664.33;;;6.70;91.40
71996;BME280;59862;47.732;7.346;2022-11-18T04:20:55;96666.30;;;6.72;91.45
71996;BME280;59862;47.732;7.346;2022-11-18T04:23:22;96678.36;;;6.68;91.31
71996;BME280;59862;47.732;7.346;2022-11-18T04:25:49;96666.73;;;6.65;91.26
71996;BME280;59862;47.732;7.346;2022-11-18T04:28:17;96671.27;;;6.64;91.24
71996;BME280;59862;47.732;7.346;2022-11-18T04:30:44;96667.77;;;6.64;91.12
71996;BME280;59862;47.732;7.346;2022-11-18T04:33:12;96669.61;;;6.53;90.94
71996;BME280;59862;47.732;7.346;2022-11-18T04:35:39;96676.64;;;6.50;90.71
71996;BME280;59862;47.732;7.346;2022-11-18T04:38:06;96678.37;;;6.47;90.58
71996;BME280;59862;47.732;7.346;2022-11-18T04:40:34;96681.80;;;6.41;90.47
71996;BME280;59862;47.732;7.346;2022-11-18T04:43:01;96680.50;;;6.37;90.42
71996;BME280;59862;47.732;7.346;2022-11-18T04:45:29;96684.50;;;6.37;90.42
71996;BME280;59862;47.732;7.346;2022-11-18T04:47:56;96680.13;;;6.29;90.30
71996;BME280;59862;47.732;7.346;2022-11-18T04:50:23;96677.26;;;6.20;90.14
71996;BME280;59862;47.732;7.346;2022-11-18T04:52:51;96679.55;;;6.13;89.96
71996;BME280;59862;47.732;7.346;2022-11-18T04:55:18;96678.64;;;6.05;89.86
71996;BME280;59862;47.732;7.346;2022-11-18T04:57:46;96680.73;;;5.99;89.90
71996;BME280;59862;47.732;7.346;2022-11-18T05:00:14;96690.96;;;5.92;89.83
71996;BME280;59862;47.732;7.346;2022-11-18T05:02:41;96698.17;;;5.87;89.81
71996;BME280;59862;47.732;7.346;2022-11-18T05:05:08;96704.83;;;5.87;89.85
71996;BME280;59862;47.732;7.346;2022-11-18T05:07:36;96696.84;;;5.87;89.92
71996;BME280;59862;47.732;7.346;2022-11-18T05:10:04;96701.23;;;5.84;90.00
71996;BME280;59862;47.732;7.346;2022-11-18T05:12:32;96700.14;;;5.89;90.10
71996;BME280;59862;47.732;7.346;2022-11-18T05:15:16;96703.50;;;5.87;90.19
71996;BME280;59862;47.732;7.346;2022-11-18T05:17:43;96704.27;;;5.92;90.28
71996;BME280;59862;47.732;7.346;2022-11-18T05:20:12;96694.66;;;5.91;90.39
71996;BME280;59862;47.732;7.346;2022-11-18T05:22:40;96707.33;;;5.89;90.37
71996;BME280;59862;47.732;7.346;2022-11-18T05:25:08;96695.43;;;5.95;90.38
71996;BME280;59862;47.732;7.346;2022-11-18T05:27:35;96710.07;;;5.95;90.39
71996;BME280;59862;47.732;7.346;2022-11-18T05:30:03;96700.56;;;5.97;90.43
71996;BME280;59862;47.732;7.346;2022-11-18T05:32:31;96698.67;;;6.01;90.51
71996;BME280;59862;47.732;7.346;2022-11-18T05:34:58;96694.98;;;6.02;90.61
71996;BME280;59862;47.732;7.346;2022-11-18T05:37:26;96699.67;;;6.00;90.78
71996;BME280;59862;47.732;7.346;2022-11-18T05:39:53;96716.83;;;5.98;90.99
71996;BME280;59862;47.732;7.346;2022-11-18T05:42:20;96699.67;;;6.00;91.24
71996;BME280;59862;47.732;7.346;2022-11-18T05:45:06;96709.95;;;6.03;91.48
71996;BME280;59862;47.732;7.346;2022-11-18T05:47:33;96706.59;;;6.05;91.70
71996;BME280;59862;47.732;7.346;2022-11-18T05:50:03;96716.22;;;6.06;91.82
71996;BME280;59862;47.732;7.346;2022-11-18T05:52:30;96715.92;;;6.05;91.96
71996;BME280;59862;47.732;7.346;2022-11-18T05:54:58;96721.52;;;6.10;92.09
71996;BME280;59862;47.732;7.346;2022-11-18T05:57:25;96723.79;;;6.13;92.17
71996;BME280;59862;47.732;7.346;2022-11-18T05:59:53;96736.35;;;6.20;92.18
71996;BME280;59862;47.732;7.346;2022-11-18T06:02:22;96724.84;;;6.23;92.19
71996;BME280;59862;47.732;7.346;2022-11-18T06:05:00;96728.21;;;6.32;92.17
71996;BME280;59862;47.732;7.346;2022-11-18T06:07:26;96731.71;;;6.32;92.06
71996;BME280;59862;47.732;7.346;2022-11-18T06:09:56;96719.52;;;6.34;92.05
71996;BME280;59862;47.732;7.346;2022-11-18T06:12:26;96733.28;;;6.37;91.99
71996;BME280;59862;47.732;7.346;2022-11-18T06:15:07;96730.75;;;6.40;91.97
71996;BME280;59862;47.732;7.346;2022-11-18T06:17:43;96728.22;;;6.42;91.99
71996;BME280;59862;47.732;7.346;2022-11-18T06:20:02;96736.66;;;6.46;92.01
71996;BME280;59862;47.732;7.346;2022-11-18T06:22:30;96739.02;;;6.45;92.05
71996;BME280;59862;47.732;7.346;2022-11-18T06:24:59;96745.61;;;6.49;92.08
71996;BME280;59862;47.732;7.346;2022-11-18T06:27:28;96758.73;;;6.50;92.13
71996;BME280;59862;47.732;7.346;2022-11-18T06:29:56;96759.20;;;6.54;92.19
71996;BME280;59862;47.732;7.346;2022-11-18T06:32:23;96775.77;;;6.60;92.18
71996;BME280;59862;47.732;7.346;2022-11-18T06:34:51;96778.94;;;6.59;92.15
71996;BME280;59862;47.732;7.346;2022-11-18T06:37:19;96778.64;;;6.69;92.10
71996;BME280;59862;47.732;7.346;2022-11-18T06:39:46;96782.31;;;6.68;92.00
71996;BME280;59862;47.732;7.346;2022-11-18T06:42:14;96785.61;;;6.70;91.87
71996;BME280;59862;47.732;7.346;2022-11-18T06:44:43;96791.20;;;6.75;91.79
71996;BME280;59862;47.732;7.346;2022-11-18T06:47:10;96796.34;;;6.76;91.70
71996;BME280;59862;47.732;7.346;2022-11-18T06:49:38;96798.11;;;6.80;91.58
71996;BME280;59862;47.732;7.346;2022-11-18T06:52:05;96805.94;;;6.81;91.51
71996;BME280;59862;47.732;7.346;2022-11-18T06:54:33;96807.41;;;6.84;91.47
71996;BME280;59862;47.732;7.346;2022-11-18T06:57:00;96803.44;;;6.80;91.50
71996;BME280;59862;47.732;7.346;2022-11-18T06:59:27;96822.07;;;6.84;91.48
71996;BME280;59862;47.732;7.346;2022-11-18T07:01:55;96816.04;;;6.86;91.39
71996;BME280;59862;47.732;7.346;2022-11-18T07:04:22;96820.61;;;6.92;91.32
71996;BME280;59862;47.732;7.346;2022-11-18T07:06:50;96824.47;;;6.89;91.27
71996;BME280;59862;47.732;7.346;2022-11-18T07:09:17;96830.84;;;6.88;91.22
71996;BME280;59862;47.732;7.346;2022-11-18T07:11:44;96825.67;;;6.87;91.24
71996;BME280;59862;47.732;7.346;2022-11-18T07:14:13;96842.70;;;6.86;91.26
71996;BME280;59862;47.732;7.346;2022-11-18T07:16:40;96841.67;;;6.87;91.32
71996;BME280;59862;47.732;7.346;2022-11-18T07:19:12;96847.34;;;6.88;91.37
71996;BME280;59862;47.732;7.346;2022-11-18T07:21:40;96857.50;;;6.88;91.42
71996;BME280;59862;47.732;7.346;2022-11-18T07:24:11;96857.11;;;6.92;91.44
71996;BME280;59862;47.732;7.346;2022-11-18T07:26:38;96868.24;;;6.95;91.37
71996;BME280;59862;47.732;7.346;2022-11-18T07:29:05;96869.18;;;6.98;91.35
71996;BME280;59862;47.732;7.346;2022-11-18T07:31:35;96876.12;;;7.03;91.26
71996;BME280;59862;47.732;7.346;2022-11-18T07:34:06;96879.22;;;7.07;91.16
71996;BME280;59862;47.732;7.346;2022-11-18T07:36:34;96877.75;;;7.04;91.09
71996;BME280;59862;47.732;7.346;2022-11-18T07:39:03;96883.78;;;7.02;91.12
71996;BME280;59862;47.732;7.346;2022-11-18T07:41:32;96885.31;;;7.01;91.13
71996;BME280;59862;47.732;7.346;2022-11-18T07:44:01;96890.84;;;6.99;91.26
71996;BME280;59862;47.732;7.346;2022-11-18T07:46:31;96897.52;;;6.99;91.34
71996;BME280;59862;47.732;7.346;2022-11-18T07:49:01;96901.13;;;7.02;91.36
71996;BME280;59862;47.732;7.346;2022-11-18T07:51:31;96908.42;;;7.04;91.34
71996;BME280;59862;47.732;7.346;2022-11-18T07:54:00;96919.37;;;7.09;91.28
71996;BME280;59862;47.732;7.346;2022-11-18T07:56:28;96920.70;;;7.09;91.13
71996;BME280;59862;47.732;7.346;2022-11-18T07:58:55;96914.87;;;7.20;91.07
71996;BME280;59862;47.732;7.346;2022-11-18T08:01:24;96919.72;;;7.52;91.01
71996;BME280;59862;47.732;7.346;2022-11-18T08:04:08;96914.06;;;7.73;89.87
71996;BME280;59862;47.732;7.346;2022-11-18T08:06:27;96912.55;;;8.02;88.84
71996;BME280;59862;47.732;7.346;2022-11-18T08:08:54;96917.77;;;8.10;87.44
71996;BME280;59862;47.732;7.346;2022-11-18T08:11:22;96920.59;;;8.19;86.95
71996;BME280;59862;47.732;7.346;2022-11-18T08:13:50;96930.84;;;8.26;86.54
71996;BME280;59862;47.732;7.346;2022-11-18T08:16:21;96917.53;;;8.22;85.99
71996;BME280;59862;47.732;7.346;2022-11-18T08:18:49;96919.88;;;8.21;86.08
71996;BME280;59862;47.732;7.346;2022-11-18T08:21:19;96923.16;;;8.16;86.23
71996;BME280;59862;47.732;7.346;2022-11-18T08:23:55;96915.52;;;7.86;86.92
71996;BME280;59862;47.732;7.346;2022-11-18T08:26:23;96915.52;;;7.86;86.92
71996;BME280;59862;47.732;7.346;2022-11-18T08:28:50;96924.99;;;7.88;87.14
71996;BME280;59862;47.732;7.346;2022-11-18T08:31:20;96922.33;;;7.88;87.21
71996;BME280;59862;47.732;7.346;2022-11-18T08:33:55;96922.84;;;7.77;87.19
71996;BME280;59862;47.732;7.346;2022-11-18T08:36:25;96925.16;;;7.87;87.38
71996;BME280;59862;47.732;7.346;2022-11-18T08:38:55;96924.92;;;7.92;87.33
71996;BME280;59862;47.732;7.346;2022-11-18T08:41:31;96925.53;;;8.05;87.25
71996;BME280;59862;47.732;7.346;2022-11-18T08:44:00;96932.73;;;8.21;86.99
71996;BME280;59862;47.732;7.346;2022-11-18T08:46:29;96928.86;;;8.52;86.56
71996;BME280;59862;47.732;7.346;2022-11-18T08:48:57;96938.67;;;8.45;85.36
71996;BME280;59862;47.732;7.346;2022-11-18T08:51:25;96938.48;;;8.29;85.43
71996;BME280;59862;47.732;7.346;2022-11-18T08:53:52;96940.70;;;8.25;85.69
71996;BME280;59862;47.732;7.346;2022-11-18T08:56:21;96941.86;;;8.16;85.97
71996;BME280;59862;47.732;7.346;2022-11-18T08:58:50;96944.53;;;8.06;86.12
71996;BME280;59862;47.732;7.346;2022-11-18T09:01:18;96947.98;;;8.00;86.27
71996;BME280;59862;47.732;7.346;2022-11-18T09:03:45;96948.83;;;7.90;86.69
71996;BME280;59862;47.732;7.346;2022-11-18T09:06:19;96954.47;;;7.91;86.78
71996;BME280;59862;47.732;7.346;2022-11-18T09:08:43;96963.11;;;7.93;87.02
71996;BME280;59862;47.732;7.346;2022-11-18T09:11:14;96959.16;;;8.20;86.74
71996;BME280;59862;47.732;7.346;2022-11-18T09:13:42;96963.44;;;8.43;85.41
71996;BME280;59862;47.732;7.346;2022-11-18T09:16:10;96969.08;;;8.54;84.81
71996;BME280;59862;47.732;7.346;2022-11-18T09:18:37;96965.11;;;8.61;84.45
71996;BME280;59862;47.732;7.346;2022-11-18T09:21:07;96969.37;;;8.83;84.28
71996;BME280;59862;47.732;7.346;2022-11-18T09:23:36;96966.11;;;9.11;83.75
71996;BME280;59862;47.732;7.346;2022-11-18T09:26:06;96963.31;;;9.08;82.84
71996;BME280;59862;47.732;7.346;2022-11-18T09:28:35;96971.44;;;9.04;82.44
71996;BME280;59862;47.732;7.346;2022-11-18T09:31:11;96972.14;;;9.02;82.72
71996;BME280;59862;47.732;7.346;2022-11-18T09:33:39;96979.48;;;8.87;82.87
71996;BME280;59862;47.732;7.346;2022-11-18T09:36:12;96979.48;;;8.87;82.87
71996;BME280;59862;47.732;7.346;2022-11-18T09:38:41;96982.16;;;8.70;83.34
71996;BME280;59862;47.732;7.346;2022-11-18T09:41:22;96988.09;;;8.66;83.56
71996;BME280;59862;47.732;7.346;2022-11-18T09:44:16;96989.69;;;8.60;83.68
71996;BME280;59862;47.732;7.346;2022-11-18T09:47:14;96990.84;;;8.51;83.87
71996;BME280;59862;47.732;7.346;2022-11-18T09:49:42;96999.55;;;8.32;84.62
71996;BME280;59862;47.732;7.346;2022-11-18T09:54:47;97002.55;;;8.33;85.63
71996;BME280;59862;47.732;7.346;2022-11-18T09:57:20;97008.03;;;8.35;85.12
71996;BME280;59862;47.732;7.346;2022-11-18T09:59:48;97006.66;;;8.46;84.44
71996;BME280;59862;47.732;7.346;2022-11-18T10:02:40;97016.02;;;8.46;84.16
71996;BME280;59862;47.732;7.346;2022-11-18T10:05:22;97018.24;;;8.53;84.35
71996;BME280;59862;47.732;7.346;2022-11-18T10:10:49;97042.78;;;8.63;83.35
71996;BME280;59862;47.732;7.346;2022-11-18T10:23:51;97049.33;;;8.88;81.24
71996;BME280;59862;47.732;7.346;2022-11-18T10:26:40;97050.45;;;8.83;82.36
71996;BME280;59862;47.732;7.346;2022-11-18T10:29:08;97050.45;;;8.83;82.36
71996;BME280;59862;47.732;7.346;2022-11-18T10:31:53;97048.70;;;9.03;81.81
71996;BME280;59862;47.732;7.346;2022-11-18T10:34:22;97051.80;;;9.41;80.30
71996;BME280;59862;47.732;7.346;2022-11-18T10:37:12;97053.46;;;9.49;79.50
71996;BME280;59862;47.732;7.346;2022-11-18T10:39:33;97061.45;;;9.66;79.73
71996;BME280;59862;47.732;7.346;2022-11-18T10:42:06;97064.45;;;9.97;78.66
71996;BME280;59862;47.732;7.346;2022-11-18T10:44:38;97066.70;;;10.17;77.34
71996;BME280;59862;47.732;7.346;2022-11-18T10:47:24;97059.09;;;10.34;76.48
71996;BME280;59862;47.732;7.346;2022-11-18T10:49:53;97062.19;;;10.44;76.08
71996;BME280;59862;47.732;7.346;2022-11-18T10:52:21;97062.36;;;10.16;77.20
71996;BME280;59862;47.732;7.346;2022-11-18T10:55:05;97068.94;;;9.83;77.80
71996;BME280;59862;47.732;7.346;2022-11-18T10:57:35;97060.48;;;9.50;79.80
71996;BME280;59862;47.732;7.346;2022-11-18T11:00:05;97063.02;;;9.41;80.76
71996;BME280;59862;47.732;7.346;2022-11-18T11:02:40;97063.96;;;9.44;81.26
71996;BME280;59862;47.732;7.346;2022-11-18T11:05:19;97065.17;;;9.00;82.10
71996;BME280;59862;47.732;7.346;2022-11-18T11:08:03;97065.17;;;9.00;82.10
71996;BME280;59862;47.732;7.346;2022-11-18T11:10:30;97061.03;;;8.98;83.35
71996;BME280;59862;47.732;7.346;2022-11-18T11:13:03;97058.91;;;9.45;83.46
71996;BME280;59862;47.732;7.346;2022-11-18T11:15:40;97051.52;;;9.30;82.47
71996;BME280;59862;47.732;7.346;2022-11-18T11:18:20;97051.52;;;9.30;82.47
71996;BME280;59862;47.732;7.346;2022-11-18T11:21:19;97057.05;;;9.22;82.87
71996;BME280;59862;47.732;7.346;2022-11-18T11:23:48;97062.27;;;9.36;82.15
71996;BME280;59862;47.732;7.346;2022-11-18T11:26:28;97054.17;;;9.47;81.53
71996;BME280;59862;47.732;7.346;2022-11-18T11:29:18;97054.17;;;9.47;81.53
71996;BME280;59862;47.732;7.346;2022-11-18T11:37:45;97058.16;;;10.01;78.18
71996;BME280;59862;47.732;7.346;2022-11-18T11:40:27;97065.04;;;9.86;76.66
71996;BME280;59862;47.732;7.346;2022-11-18T11:43:07;97058.76;;;9.53;77.42
71996;BME280;59862;47.732;7.346;2022-11-18T11:48:41;97067.11;;;9.60;78.01
71996;BME280;59862;47.732;7.346;2022-11-18T11:51:29;97067.11;;;9.60;78.01
71996;BME280;59862;47.732;7.346;2022-11-18T11:56:57;97063.78;;;9.28;77.59
71996;BME280;59862;47.732;7.346;2022-11-18T11:59:43;97064.52;;;9.33;78.06
71996;BME280;59862;47.732;7.346;2022-11-18T12:08:00;97073.52;;;9.59;76.56
71996;BME280;59862;47.732;7.346;2022-11-18T12:18:41;97080.84;;;11.07;71.06
71996;BME280;59862;47.732;7.346;2022-11-18T12:21:33;97073.52;;;10.98;70.90
71996;BME280;59862;47.732;7.346;2022-11-18T12:23:37;97075.50;;;10.81;70.50
71996;BME280;59862;47.732;7.346;2022-11-18T12:26:11;97069.33;;;10.74;71.04
71996;BME280;59862;47.732;7.346;2022-11-18T12:28:44;97070.16;;;10.74;70.75
71996;BME280;59862;47.732;7.346;2022-11-18T12:36:38;97073.39;;;11.57;68.49
71996;BME280;59862;47.732;7.346;2022-11-18T12:41:57;97070.29;;;11.25;67.84
71996;BME280;59862;47.732;7.346;2022-11-18T12:44:39;97086.22;;;11.55;67.99
71996;BME280;59862;47.732;7.346;2022-11-18T12:47:12;97081.13;;;11.91;66.20
71996;BME280;59862;47.732;7.346;2022-11-18T12:55:10;97072.75;;;13.51;60.49
71996;BME280;59862;47.732;7.346;2022-11-18T12:57:32;97074.86;;;13.77;60.13
71996;BME280;59862;47.732;7.346;2022-11-18T13:02:54;97074.85;;;16.58;52.96
71996;BME280;59862;47.732;7.346;2022-11-18T13:05:24;97069.32;;;17.34;51.18
71996;BME280;59862;47.732;7.346;2022-11-18T13:07:56;97083.52;;;18.66;46.57
71996;BME280;59862;47.732;7.346;2022-11-18T13:10:46;97079.43;;;18.42;46.17
71996;BME280;59862;47.732;7.346;2022-11-18T13:13:29;97076.81;;;18.25;47.23
71996;BME280;59862;47.732;7.346;2022-11-18T13:16:43;97085.80;;;18.06;45.96
71996;BME280;59862;47.732;7.346;2022-11-18T13:18:52;97086.69;;;18.34;46.12
71996;BME280;59862;47.732;7.346;2022-11-18T13:21:28;97092.16;;;19.50;43.94
71996;BME280;59862;47.732;7.346;2022-11-18T13:24:13;97092.50;;;20.11;43.39
71996;BME280;59862;47.732;7.346;2022-11-18T13:26:42;97088.95;;;20.97;40.06
71996;BME280;59862;47.732;7.346;2022-11-18T13:29:44;97096.84;;;20.07;41.28
71996;BME280;59862;47.732;7.346;2022-11-18T13:32:24;97091.05;;;20.50;40.39
71996;BME280;59862;47.732;7.346;2022-11-18T13:34:57;97087.36;;;21.06;40.76
71996;BME280;59862;47.732;7.346;2022-11-18T13:37:29;97097.13;;;21.73;38.33
71996;BME280;59862;47.732;7.346;2022-11-18T13:39:57;97098.28;;;21.39;38.30
71996;BME280;59862;47.732;7.346;2022-11-18T13:42:31;97094.72;;;21.06;38.17
71996;BME280;59862;47.732;7.346;2022-11-18T13:45:00;97094.36;;;18.90;42.36
71996;BME280;59862;47.732;7.346;2022-11-18T13:50:29;97098.84;;;18.50;43.10
71996;BME280;59862;47.732;7.346;2022-11-18T13:55:40;97086.83;;;17.10;45.82
71996;BME280;59862;47.732;7.346;2022-11-18T14:01:00;97083.45;;;17.36;45.61
71996;BME280;59862;47.732;7.346;2022-11-18T14:06:36;97090.79;;;18.60;42.04
71996;BME280;59862;47.732;7.346;2022-11-18T14:14:41;97082.47;;;13.16;54.80
71996;BME280;59862;47.732;7.346;2022-11-18T14:17:26;97090.72;;;12.50;58.02
71996;BME280;59862;47.732;7.346;2022-11-18T14:19:56;97080.66;;;13.10;57.59
71996;BME280;59862;47.732;7.346;2022-11-18T14:22:27;97090.13;;;13.64;56.01
71996;BME280;59862;47.732;7.346;2022-11-18T14:24:59;97086.76;;;13.42;56.78
71996;BME280;59862;47.732;7.346;2022-11-18T14:27:44;97087.66;;;12.08;60.74
71996;BME280;59862;47.732;7.346;2022-11-18T14:30:34;97087.53;;;11.20;64.42
71996;BME280;59862;47.732;7.346;2022-11-18T14:33:11;97080.78;;;10.98;65.79
71996;BME280;59862;47.732;7.346;2022-11-18T14:36:00;97079.55;;;10.68;67.16
71996;BME280;59862;47.732;7.346;2022-11-18T14:41:01;97091.16;;;10.38;68.30
71996;BME280;59862;47.732;7.346;2022-11-18T14:43:29;97094.66;;;10.25;69.04
71996;BME280;59862;47.732;7.346;2022-11-18T14:46:03;97091.16;;;10.01;70.25
71996;BME280;59862;47.732;7.346;2022-11-18T14:48:31;97092.91;;;9.91;70.27
71996;BME280;59862;47.732;7.346;2022-11-18T14:50:59;97100.77;;;9.76;71.31
71996;BME280;59862;47.732;7.346;2022-11-18T14:53:27;97096.28;;;9.59;71.89
71996;BME280;59862;47.732;7.346;2022-11-18T14:55:56;97104.11;;;9.61;72.61
71996;BME280;59862;47.732;7.346;2022-11-18T14:58:25;97111.93;;;9.62;72.89
71996;BME280;59862;47.732;7.346;2022-11-18T15:00:52;97117.09;;;9.47;72.98
71996;BME280;59862;47.732;7.346;2022-11-18T15:03:20;97119.56;;;9.42;73.17
71996;BME280;59862;47.732;7.346;2022-11-18T15:05:47;97115.77;;;9.30;73.11
71996;BME280;59862;47.732;7.346;2022-11-18T15:08:15;97111.92;;;9.22;73.14